Terminal Aerodrome Forecast
Issued by NWS La Crosse, WI

Home | Current Version | Previous Version | Text Only | Print | Product List | Glossary On
Versions: 1 2 3 4 5 6 7 8 9 10 11 12 13 14 15 16 17 18 19 20 21 22 23 24 25 26 27 28 29 30 31 32 33
000
FTUS43 KARX 052320
TAFRST
TAF
KRST 052320Z 0600/0624 20009KT P6SM SKC
     FM060500 19014KT P6SM SCT100
     FM060900 20016G23KT P6SM SCT100
     FM061500 22014KT P6SM SCT100
     FM062100 26012KT P6SM SCT100=

USA.gov is the U.S. government's official web portal to all federal, state and local government web resources and services.